createdAt,value
2023-03-05T00:01:33.680Z,11.70
2023-03-05T00:04:02.561Z,8.50
2023-03-05T00:06:32.289Z,7.18
2023-03-05T00:09:00.525Z,8.15
2023-03-05T00:11:30.388Z,9.82
2023-03-05T00:13:58.929Z,10.48
2023-03-05T00:16:27.152Z,32.83
2023-03-05T00:18:56.792Z,69.65
2023-03-05T00:21:25.871Z,27.15
2023-03-05T00:23:54.561Z,9.93
2023-03-05T00:26:28.415Z,9.48
2023-03-05T00:28:58.527Z,11.65
2023-03-05T00:31:30.837Z,12.18
2023-03-05T00:34:01.549Z,26.85
2023-03-05T00:36:29.977Z,10.95
2023-03-05T00:38:58.258Z,9.43
2023-03-05T00:41:25.951Z,7.60
2023-03-05T00:43:53.529Z,8.05
2023-03-05T00:46:22.319Z,9.15
2023-03-05T00:48:49.902Z,8.02
2023-03-05T00:51:17.556Z,9.38
2023-03-05T00:53:45.087Z,12.18
2023-03-05T00:56:14.313Z,9.48
2023-03-05T00:58:41.850Z,9.60
2023-03-05T01:01:11.541Z,7.30
2023-03-05T01:03:38.715Z,11.40
2023-03-05T01:06:08.951Z,7.85
2023-03-05T01:08:38.986Z,83.13
2023-03-05T01:11:08.796Z,37.17
2023-03-05T01:13:37.502Z,15.65
2023-03-05T01:16:07.728Z,10.27
2023-03-05T01:18:35.570Z,10.60
2023-03-05T01:21:04.317Z,11.13
2023-03-05T01:23:31.783Z,10.05
2023-03-05T01:26:00.783Z,8.52
2023-03-05T01:28:29.070Z,9.57
2023-03-05T01:30:56.647Z,8.45
2023-03-05T01:33:25.287Z,10.07
2023-03-05T01:35:52.764Z,9.88
2023-03-05T01:38:20.102Z,8.40
2023-03-05T01:40:49.515Z,22.63
2023-03-05T01:43:25.257Z,80.45
2023-03-05T01:46:28.482Z,21.77
2023-03-05T01:49:17.345Z,11.18
2023-03-05T01:51:57.962Z,11.60
2023-03-05T01:54:50.418Z,7.93
2023-03-05T01:57:23.475Z,10.52
2023-03-05T01:59:56.664Z,8.10
2023-03-05T02:02:25.353Z,9.68
2023-03-05T02:05:07.388Z,13.95
2023-03-05T02:07:37.655Z,8.95
2023-03-05T02:10:26.545Z,9.68
2023-03-05T02:12:57.217Z,10.80
2023-03-05T02:15:24.834Z,12.65
2023-03-05T02:17:53.186Z,10.10
2023-03-05T02:20:24.658Z,10.98
2023-03-05T02:22:52.520Z,10.15
2023-03-05T02:25:23.115Z,10.20
2023-03-05T02:28:00.314Z,6.63
2023-03-05T02:30:28.975Z,7.47
2023-03-05T02:33:02.770Z,7.50
2023-03-05T02:35:29.846Z,8.82
2023-03-05T02:37:57.450Z,8.77
2023-03-05T02:40:25.614Z,6.25
2023-03-05T02:42:54.070Z,6.65
2023-03-05T02:45:22.267Z,8.30
2023-03-05T02:47:49.778Z,8.30
2023-03-05T02:50:17.611Z,7.47
2023-03-05T02:52:45.498Z,7.97
2023-03-05T02:55:14.668Z,8.13
2023-03-05T02:57:42.141Z,7.47
2023-03-05T03:00:17.149Z,9.77
2023-03-05T03:02:44.857Z,7.32
2023-03-05T03:05:12.282Z,8.23
2023-03-05T03:07:39.835Z,9.30
2023-03-05T03:10:07.673Z,11.93
2023-03-05T03:12:42.021Z,9.00
2023-03-05T03:15:11.111Z,12.70
2023-03-05T03:17:39.936Z,7.95
2023-03-05T03:20:09.800Z,11.02
2023-03-05T03:22:37.523Z,8.30
2023-03-05T03:25:05.582Z,8.10
2023-03-05T03:27:33.103Z,12.50
2023-03-05T03:30:04.994Z,14.93
2023-03-05T03:32:41.166Z,8.13
2023-03-05T03:35:10.601Z,7.80
2023-03-05T03:37:39.331Z,7.25
2023-03-05T03:40:07.498Z,10.75
2023-03-05T03:42:36.415Z,8.88
2023-03-05T03:45:04.247Z,7.97
2023-03-05T03:47:39.143Z,6.47
2023-03-05T03:50:07.111Z,11.73
2023-03-05T03:52:35.306Z,7.70
2023-03-05T03:55:03.986Z,9.10
2023-03-05T03:57:33.894Z,8.43
2023-03-05T04:00:01.508Z,8.75
2023-03-05T04:02:34.910Z,9.18
2023-03-05T04:05:05.064Z,10.30
2023-03-05T04:07:32.384Z,9.50
2023-03-05T04:09:59.866Z,10.80
2023-03-05T04:12:27.197Z,11.13
2023-03-05T04:14:54.748Z,11.40
2023-03-05T04:17:22.146Z,9.43
2023-03-05T04:19:49.615Z,11.18
2023-03-05T04:22:18.499Z,8.18
2023-03-05T04:24:46.219Z,9.77
2023-03-05T04:27:13.466Z,12.13
2023-03-05T04:29:41.072Z,11.20
2023-03-05T04:32:08.528Z,9.65
2023-03-05T04:34:38.003Z,8.73
2023-03-05T04:37:06.539Z,6.95
2023-03-05T04:39:33.938Z,9.48
2023-03-05T04:42:01.401Z,8.18
2023-03-05T04:44:29.036Z,10.70
2023-03-05T04:46:56.262Z,7.15
2023-03-05T04:49:23.874Z,11.27
2023-03-05T04:51:51.299Z,9.98
2023-03-05T04:54:18.728Z,11.70
2023-03-05T04:56:46.232Z,10.48
2023-03-05T04:59:13.814Z,9.30
2023-03-05T05:01:42.186Z,10.43
2023-03-05T05:04:09.729Z,11.23
2023-03-05T05:06:37.096Z,12.82
2023-03-05T05:09:11.573Z,11.10
2023-03-05T05:11:40.178Z,12.50
2023-03-05T05:14:07.875Z,10.38
2023-03-05T05:16:35.179Z,16.70
2023-03-05T05:19:02.481Z,16.45
2023-03-05T05:21:30.066Z,10.57
2023-03-05T05:23:57.458Z,11.75
2023-03-05T05:26:28.217Z,11.98
2023-03-05T05:28:55.471Z,10.18
2023-03-05T05:31:22.948Z,13.00
2023-03-05T05:33:50.456Z,9.70
2023-03-05T05:36:22.672Z,13.63
2023-03-05T05:38:51.567Z,14.57
2023-03-05T05:41:20.258Z,12.45
2023-03-05T05:43:48.128Z,13.07
2023-03-05T05:46:18.279Z,13.48
2023-03-05T05:48:46.698Z,12.80
2023-03-05T05:51:20.765Z,11.65
2023-03-05T05:53:50.041Z,13.00
2023-03-05T05:56:24.118Z,12.93
2023-03-05T05:58:52.683Z,15.35
2023-03-05T06:01:24.401Z,14.07
2023-03-05T06:03:51.587Z,13.20
2023-03-05T06:06:22.492Z,13.90
2023-03-05T06:08:50.517Z,13.23
2023-03-05T06:11:19.557Z,15.40
2023-03-05T06:13:48.962Z,12.95
2023-03-05T06:16:21.069Z,14.32
2023-03-05T06:18:48.631Z,13.90
2023-03-05T06:21:19.788Z,16.52
2023-03-05T06:23:48.677Z,16.67
2023-03-05T06:26:19.839Z,15.35
2023-03-05T06:28:48.192Z,14.90
2023-03-05T06:31:18.750Z,13.57
2023-03-05T06:33:47.146Z,13.25
2023-03-05T06:36:18.910Z,12.23
2023-03-05T06:39:12.188Z,15.23
2023-03-05T06:41:39.712Z,15.48
2023-03-05T06:44:07.228Z,13.73
2023-03-05T06:46:40.194Z,14.77
2023-03-05T06:49:09.784Z,17.73
2023-03-05T06:51:39.948Z,13.77
2023-03-05T06:54:12.921Z,13.27
2023-03-05T06:56:42.906Z,12.60
2023-03-05T06:59:12.677Z,15.18
2023-03-05T07:01:39.905Z,11.38
2023-03-05T07:04:07.192Z,12.93
2023-03-05T07:06:37.228Z,13.88
2023-03-05T07:09:06.947Z,14.60
2023-03-05T07:11:34.715Z,12.07
2023-03-05T07:14:03.526Z,15.73
2023-03-05T07:16:32.950Z,12.98
2023-03-05T07:19:04.252Z,17.55
2023-03-05T07:21:33.715Z,13.85
2023-03-05T07:24:03.136Z,16.52
2023-03-05T07:26:31.319Z,11.98
2023-03-05T07:28:59.582Z,15.27
2023-03-05T07:31:31.192Z,18.75
2023-03-05T07:34:01.508Z,17.90
2023-03-05T07:36:29.778Z,16.80
2023-03-05T07:38:57.487Z,14.50
2023-03-05T07:41:25.072Z,20.48
2023-03-05T07:43:55.388Z,16.88
2023-03-05T07:46:26.323Z,22.23
2023-03-05T07:48:57.490Z,16.98
2023-03-05T07:51:26.909Z,18.88
2023-03-05T07:53:56.012Z,17.83
2023-03-05T07:56:32.184Z,19.33
2023-03-05T07:59:01.667Z,20.08
2023-03-05T08:01:32.959Z,20.55
2023-03-05T08:04:00.329Z,26.10
2023-03-05T08:06:28.002Z,21.40
2023-03-05T08:08:58.385Z,28.30
2023-03-05T08:11:25.687Z,24.08
2023-03-05T08:13:53.066Z,30.50
2023-03-05T08:16:22.548Z,29.25
2023-03-05T08:18:50.067Z,28.67
2023-03-05T08:21:20.977Z,25.80
2023-03-05T08:23:48.936Z,29.10
2023-03-05T08:26:22.976Z,31.50
2023-03-05T08:28:51.065Z,32.53
2023-03-05T08:31:21.828Z,33.30
2023-03-05T08:33:54.300Z,36.65
2023-03-05T08:36:22.961Z,31.97
2023-03-05T08:38:51.104Z,27.95
2023-03-05T08:41:19.660Z,25.65
2023-03-05T08:43:47.118Z,28.30
2023-03-05T08:46:16.212Z,28.17
2023-03-05T08:48:43.863Z,22.67
2023-03-05T08:51:17.321Z,26.08
2023-03-05T08:53:46.171Z,24.88
2023-03-05T08:56:14.792Z,25.65
2023-03-05T08:58:42.257Z,26.40
2023-03-05T09:01:09.816Z,24.05
2023-03-05T09:03:37.023Z,21.20
2023-03-05T09:06:08.374Z,18.88
2023-03-05T09:08:37.071Z,18.52
2023-03-05T09:11:07.872Z,14.80
2023-03-05T09:13:36.694Z,12.98
2023-03-05T09:16:11.117Z,11.27
2023-03-05T09:18:40.469Z,15.20
2023-03-05T09:21:11.240Z,10.60
2023-03-05T09:23:39.463Z,11.90
2023-03-05T09:26:08.677Z,9.07
2023-03-05T09:28:37.187Z,10.15
2023-03-05T09:31:08.008Z,8.25
2023-03-05T09:33:38.132Z,8.55
2023-03-05T09:36:23.498Z,8.40
2023-03-05T09:38:51.204Z,11.38
2023-03-05T09:41:38.206Z,49.30
2023-03-05T09:44:27.155Z,58.50
2023-03-05T09:47:06.095Z,49.35
2023-03-05T09:49:49.274Z,29.58
2023-03-05T09:52:47.780Z,13.23
2023-03-05T09:55:27.014Z,8.57
2023-03-05T09:57:59.485Z,8.13
2023-03-05T10:00:45.681Z,14.53
2023-03-05T10:03:35.310Z,9.48
2023-03-05T10:06:17.546Z,22.58
2023-03-05T10:09:05.570Z,16.00
2023-03-05T10:12:01.243Z,21.60
2023-03-05T10:14:36.068Z,13.70
2023-03-05T10:17:45.143Z,19.60
2023-03-05T10:20:50.700Z,10.00
2023-03-05T10:23:37.030Z,11.18
2023-03-05T10:26:14.588Z,22.02
2023-03-05T10:29:09.109Z,6.00
2023-03-05T10:31:55.618Z,13.13
2023-03-05T10:34:41.140Z,11.63
2023-03-05T10:37:32.493Z,36.80
2023-03-05T10:40:37.752Z,6.70
2023-03-05T10:43:36.694Z,16.17
2023-03-05T10:46:05.383Z,10.65
2023-03-05T10:48:38.845Z,20.10
2023-03-05T10:51:30.507Z,25.85
2023-03-05T10:53:59.502Z,17.10
2023-03-05T10:56:29.179Z,18.60
2023-03-05T10:58:57.037Z,18.08
2023-03-05T11:01:33.624Z,30.75
2023-03-05T11:04:15.362Z,20.27
2023-03-05T11:06:48.461Z,12.23
2023-03-05T11:09:32.593Z,103.60
2023-03-05T11:12:08.995Z,50.88
2023-03-05T11:15:08.690Z,24.17
2023-03-05T11:17:39.659Z,4.40
2023-03-05T11:20:32.237Z,16.95
2023-03-05T11:23:18.168Z,9.80
2023-03-05T11:25:57.925Z,18.02
2023-03-05T11:28:36.125Z,15.05
2023-03-05T11:31:18.683Z,12.43
2023-03-05T11:34:05.124Z,9.88
2023-03-05T11:36:39.788Z,8.70
2023-03-05T11:39:10.029Z,10.32
2023-03-05T11:41:52.483Z,10.07
2023-03-05T11:44:27.878Z,10.93
2023-03-05T11:47:05.395Z,14.90
2023-03-05T11:49:44.345Z,22.08
2023-03-05T11:52:46.951Z,14.43
2023-03-05T11:55:28.528Z,14.65
2023-03-05T11:58:18.309Z,20.63
2023-03-05T12:00:47.314Z,29.08
2023-03-05T12:03:19.287Z,17.55
2023-03-05T12:05:58.040Z,32.03
2023-03-05T12:08:37.150Z,18.60
2023-03-05T12:11:21.816Z,19.63
2023-03-05T12:14:15.011Z,32.92
2023-03-05T12:17:04.106Z,17.63
2023-03-05T12:19:52.073Z,13.65
2023-03-05T12:22:25.635Z,28.33
2023-03-05T12:27:37.802Z,14.10
2023-03-05T12:30:26.583Z,26.95
2023-03-05T12:32:54.847Z,22.88
2023-03-05T12:35:38.057Z,11.13
2023-03-05T12:38:31.980Z,15.88
2023-03-05T12:41:25.859Z,11.80
2023-03-05T12:44:06.824Z,9.40
2023-03-05T12:47:07.270Z,24.20
2023-03-05T12:49:45.336Z,32.83
2023-03-05T12:52:23.809Z,29.23
2023-03-05T12:55:27.692Z,17.27
2023-03-05T12:58:05.678Z,14.25
2023-03-05T13:01:04.957Z,6.13
2023-03-05T13:03:37.724Z,7.40
2023-03-05T13:06:07.656Z,8.60
2023-03-05T13:08:44.487Z,9.88
2023-03-05T13:11:21.793Z,13.40
2023-03-05T13:13:51.211Z,16.52
2023-03-05T13:16:37.253Z,8.93
2023-03-05T13:19:14.735Z,9.50
2023-03-05T13:22:02.533Z,7.45
2023-03-05T13:24:31.906Z,8.45
2023-03-05T13:26:59.392Z,9.27
2023-03-05T13:29:31.543Z,6.63
2023-03-05T13:32:20.794Z,6.63
2023-03-05T13:35:04.674Z,8.15
2023-03-05T13:37:38.294Z,6.20
2023-03-05T13:40:16.955Z,6.45
2023-03-05T13:42:47.555Z,9.70
2023-03-05T13:45:30.558Z,4.18
2023-03-05T13:48:07.949Z,4.97
2023-03-05T13:50:41.333Z,6.90
2023-03-05T13:55:55.840Z,3.67
2023-03-05T13:58:50.433Z,3.70
2023-03-05T14:01:33.450Z,3.30
2023-03-05T14:04:13.389Z,2.08
2023-03-05T14:06:59.586Z,2.65
2023-03-05T14:09:39.442Z,4.78
2023-03-05T14:12:39.490Z,3.15
2023-03-05T14:15:29.201Z,5.45
2023-03-05T14:18:12.465Z,2.42
2023-03-05T14:20:59.565Z,2.42
2023-03-05T14:23:50.110Z,2.00
2023-03-05T14:26:33.687Z,2.50
2023-03-05T14:29:17.954Z,2.70
2023-03-05T14:32:09.249Z,3.03
2023-03-05T14:34:40.791Z,5.32
2023-03-05T14:37:25.719Z,2.05
2023-03-05T14:40:32.524Z,2.83
2023-03-05T14:43:06.030Z,22.13
2023-03-05T14:45:36.271Z,4.43
2023-03-05T14:48:07.056Z,3.90
2023-03-05T14:50:43.694Z,7.05
2023-03-05T14:53:19.062Z,4.40
2023-03-05T14:55:51.265Z,2.80
2023-03-05T14:58:22.224Z,4.60
2023-03-05T15:00:53.354Z,4.05
2023-03-05T15:03:22.297Z,4.05
2023-03-05T15:05:59.370Z,4.53
2023-03-05T15:08:30.572Z,2.70
2023-03-05T15:10:59.673Z,4.80
2023-03-05T15:13:31.432Z,9.57
2023-03-05T15:16:00.122Z,6.22
2023-03-05T15:18:27.570Z,3.55
2023-03-05T15:20:57.933Z,2.58
2023-03-05T15:23:26.240Z,4.30
2023-03-05T15:25:56.841Z,6.75
2023-03-05T15:28:25.353Z,9.70
2023-03-05T15:30:53.437Z,10.18
2023-03-05T15:33:23.005Z,13.40
2023-03-05T15:35:52.485Z,18.02
2023-03-05T15:38:24.362Z,18.83
2023-03-05T15:40:55.286Z,25.42
2023-03-05T15:43:24.005Z,33.00
2023-03-05T15:45:53.573Z,12.35
2023-03-05T15:48:21.930Z,26.63
2023-03-05T15:50:50.106Z,17.67
2023-03-05T15:53:31.324Z,18.98
2023-03-05T15:55:59.777Z,34.78
2023-03-05T15:58:27.655Z,113.07
2023-03-05T16:00:56.285Z,149.23
2023-03-05T16:03:24.506Z,95.50
2023-03-05T16:05:52.831Z,39.92
2023-03-05T16:08:21.287Z,31.05
2023-03-05T16:10:49.432Z,17.60
2023-03-05T16:13:21.236Z,32.10
2023-03-05T16:15:54.006Z,36.90
2023-03-05T16:18:23.942Z,25.20
2023-03-05T16:20:53.525Z,28.08
2023-03-05T16:23:23.386Z,58.45
2023-03-05T16:25:58.096Z,23.58
2023-03-05T16:28:27.355Z,46.95
2023-03-05T16:30:58.817Z,97.53
2023-03-05T16:33:27.718Z,93.38
2023-03-05T16:36:19.552Z,74.78
2023-03-05T16:38:52.399Z,68.40
2023-03-05T16:41:23.966Z,20.02
2023-03-05T16:44:00.870Z,17.55
2023-03-05T16:46:31.987Z,10.88
2023-03-05T16:49:03.066Z,12.38
2023-03-05T16:51:33.231Z,16.88
2023-03-05T16:54:01.759Z,16.73
2023-03-05T16:56:29.748Z,10.75
2023-03-05T16:58:58.030Z,12.00
2023-03-05T17:01:25.942Z,26.15
2023-03-05T17:03:54.571Z,29.55
2023-03-05T17:06:27.036Z,23.80
2023-03-05T17:08:56.201Z,21.73
2023-03-05T17:11:26.688Z,31.67
2023-03-05T17:13:56.581Z,37.22
2023-03-05T17:16:27.894Z,23.58
2023-03-05T17:18:56.694Z,25.35
2023-03-05T17:21:25.933Z,26.60
2023-03-05T17:23:55.662Z,28.35
2023-03-05T17:26:24.451Z,27.45
2023-03-05T17:28:54.442Z,28.17
2023-03-05T17:31:22.813Z,25.42
2023-03-05T17:33:51.420Z,22.42
2023-03-05T17:36:27.396Z,32.38
2023-03-05T17:38:56.436Z,27.15
2023-03-05T17:41:25.654Z,26.95
2023-03-05T17:43:53.600Z,29.45
2023-03-05T17:46:22.392Z,31.65
2023-03-05T17:48:54.406Z,24.95
2023-03-05T17:51:23.284Z,28.10
2023-03-05T17:54:02.250Z,24.70
2023-03-05T17:56:35.512Z,29.27
2023-03-05T17:59:06.876Z,29.90
2023-03-05T18:01:47.256Z,29.15
2023-03-05T18:04:18.213Z,28.02
2023-03-05T18:06:47.383Z,32.85
2023-03-05T18:09:16.033Z,37.42
2023-03-05T18:11:44.867Z,30.10
2023-03-05T18:14:15.156Z,27.40
2023-03-05T18:16:46.737Z,22.80
2023-03-05T18:19:17.747Z,17.33
2023-03-05T18:21:50.404Z,16.50
2023-03-05T18:24:22.335Z,16.45
2023-03-05T18:26:53.064Z,18.70
2023-03-05T18:29:43.700Z,12.40
2023-03-05T18:32:14.744Z,14.52
2023-03-05T18:34:50.805Z,12.38
2023-03-05T18:37:19.312Z,12.90
2023-03-05T18:39:47.456Z,11.45
2023-03-05T18:42:16.960Z,11.13
2023-03-05T18:44:45.627Z,12.02
2023-03-05T18:47:15.720Z,12.02
2023-03-05T18:49:58.246Z,12.95
2023-03-05T18:55:20.485Z,12.13
2023-03-05T18:58:01.838Z,12.80
2023-03-05T19:00:33.340Z,11.10
2023-03-05T19:03:04.809Z,13.15
2023-03-05T19:05:35.642Z,10.43
2023-03-05T19:08:05.559Z,11.20
2023-03-05T19:10:34.865Z,25.27
2023-03-05T19:13:31.871Z,10.63
2023-03-05T19:16:04.200Z,11.15
2023-03-05T19:18:39.476Z,10.20
2023-03-05T19:21:14.104Z,11.30
2023-03-05T19:23:46.555Z,9.07
2023-03-05T19:26:14.461Z,12.52
2023-03-05T19:28:43.055Z,11.02
2023-03-05T19:31:11.596Z,13.52
2023-03-05T19:33:40.104Z,15.50
2023-03-05T19:36:22.070Z,16.40
2023-03-05T19:38:55.260Z,19.38
2023-03-05T19:44:05.052Z,17.25
2023-03-05T19:46:34.127Z,89.32
2023-03-05T19:49:03.805Z,110.10
2023-03-05T19:51:32.332Z,73.97
2023-03-05T19:54:01.086Z,85.82
2023-03-05T19:56:29.711Z,59.35
2023-03-05T19:59:05.591Z,79.30
2023-03-05T20:01:34.350Z,57.88
2023-03-05T20:04:05.490Z,69.70
2023-03-05T20:06:34.739Z,62.25
2023-03-05T20:09:08.097Z,63.22
2023-03-05T20:14:11.013Z,56.88
2023-03-05T20:16:40.014Z,45.05
2023-03-05T20:19:17.027Z,42.15
2023-03-05T20:21:46.189Z,37.90
2023-03-05T20:24:17.704Z,42.58
2023-03-05T20:26:48.350Z,44.92
2023-03-05T20:29:18.365Z,57.10
2023-03-05T20:31:47.152Z,59.08
2023-03-05T20:34:17.787Z,51.38
2023-03-05T20:36:46.922Z,76.57
2023-03-05T20:39:16.606Z,52.70
2023-03-05T20:41:45.311Z,37.40
2023-03-05T20:44:15.188Z,29.63
2023-03-05T20:46:53.721Z,28.83
2023-03-05T20:49:22.664Z,32.45
2023-03-05T20:51:52.590Z,35.38
2023-03-05T20:54:21.488Z,28.08
2023-03-05T20:56:49.813Z,29.50
2023-03-05T20:59:18.098Z,27.42
2023-03-05T21:01:46.819Z,28.10
2023-03-05T21:04:15.138Z,27.02
2023-03-05T21:06:43.537Z,24.98
2023-03-05T21:09:11.867Z,23.27
2023-03-05T21:11:41.366Z,24.40
2023-03-05T21:14:10.077Z,28.27
2023-03-05T21:16:45.298Z,26.70
2023-03-05T21:19:14.088Z,34.75
2023-03-05T21:21:46.458Z,32.05
2023-03-05T21:24:14.491Z,42.30
2023-03-05T21:26:42.510Z,39.95
2023-03-05T21:29:10.342Z,55.38
2023-03-05T21:31:38.934Z,53.38
2023-03-05T21:34:06.963Z,65.88
2023-03-05T21:36:35.911Z,59.10
2023-03-05T21:39:04.151Z,51.20
2023-03-05T21:41:33.962Z,52.33
2023-03-05T21:44:04.371Z,44.97
2023-03-05T21:46:33.541Z,32.55
2023-03-05T21:49:02.984Z,35.90
2023-03-05T21:51:38.733Z,30.75
2023-03-05T21:54:07.625Z,31.60
2023-03-05T21:56:35.146Z,29.10
2023-03-05T21:59:03.474Z,28.63
2023-03-05T22:01:31.081Z,28.23
2023-03-05T22:03:58.264Z,28.55
2023-03-05T22:06:25.692Z,32.75
2023-03-05T22:08:52.821Z,31.42
2023-03-05T22:11:21.355Z,29.45
2023-03-05T22:13:50.982Z,25.77
2023-03-05T22:16:23.961Z,29.02
2023-03-05T22:18:51.966Z,25.42
2023-03-05T22:21:26.318Z,23.65
2023-03-05T22:23:57.460Z,25.10
2023-03-05T22:26:34.664Z,24.50
2023-03-05T22:29:03.477Z,23.55
2023-03-05T22:31:30.910Z,23.02
2023-03-05T22:33:58.700Z,23.45
2023-03-05T22:36:26.454Z,26.70
2023-03-05T22:38:54.018Z,27.60
2023-03-05T22:41:22.065Z,21.63
2023-03-05T22:43:51.995Z,23.90
2023-03-05T22:46:22.364Z,20.60
2023-03-05T22:48:52.848Z,19.63
2023-03-05T22:51:32.375Z,26.20
2023-03-05T22:54:02.010Z,32.25
2023-03-05T22:56:29.491Z,29.08
2023-03-05T22:58:57.779Z,17.80
2023-03-05T23:01:26.905Z,17.83
2023-03-05T23:03:59.080Z,17.02
2023-03-05T23:06:27.465Z,16.67
2023-03-05T23:08:55.980Z,17.90
2023-03-05T23:11:23.359Z,17.48
2023-03-05T23:13:50.800Z,22.05
2023-03-05T23:16:19.262Z,27.60
2023-03-05T23:18:47.631Z,19.77
2023-03-05T23:21:15.224Z,15.43
2023-03-05T23:23:43.623Z,14.85
2023-03-05T23:26:11.072Z,13.25
2023-03-05T23:28:38.625Z,14.05
2023-03-05T23:31:06.140Z,12.30
2023-03-05T23:33:34.464Z,13.98
2023-03-05T23:36:04.186Z,13.65
2023-03-05T23:38:32.509Z,16.00
2023-03-05T23:41:03.987Z,12.27
2023-03-05T23:43:33.622Z,13.50
2023-03-05T23:46:02.278Z,11.20
2023-03-05T23:48:32.146Z,15.18
2023-03-05T23:50:59.553Z,13.98
2023-03-05T23:53:31.580Z,10.13
2023-03-05T23:56:12.541Z,11.45
2023-03-05T23:58:39.828Z,12.13
